Other Surface Observations
Issued by NWS Great Falls, MT

Home | Current Version | Previous Version | Text Only | Print | Product List | Glossary On
Versions: 1 2 3 4 5 6 7 8 9 10 11 12 13 14 15 16 17 18 19 20 21 22 23 24 25 26 27 28 29 30 31 32 33 34 35 36 37 38 39 40 41 42 43 44 45 46 47 48 49 50
000
SXUS55 KTFX 221602
OSOTFX

AREA AWOS OBSERVATIONS
NATIONAL WEATHER SERVICE GREAT FALLS MT
0906 AM MDT Sun Oct 22 2017

METAR K7S0 221355Z AUTO 13001KT 15SM 08/05 A2988 RMK A01 T00770050
METAR K7S1 221455Z AUTO 13010KT 40SM 11/M02 A2999 RMK A01 T01051022
METAR K97M 221455Z AUTO 19006KT 40SM 09/M09 A2983 RMK A01 T00881094
METAR K9S2 221455Z AUTO 15004KT 40SM 03/M07 A2963 RMK A01 T00271072
METAR K9S5 221455Z AUTO 20019KT 40SM 12/M01 A2993 RMK A01 T01161005
METAR KS34 221455Z AUTO 13000KT 5SM 08/06 A2983 RMK A01 T00770055
METAR KTHM 221355Z AUTO 01004KT 15SM 07/06 A2985 RMK A01 T00720061



USA.gov is the U.S. government's official web portal to all federal, state and local government web resources and services.